Time;durP1;ratioP1;P1;durP2;ratioP2;P2;SDS_P1;SDS_P2;PMS_P1;PMS_P2;Temp;Humidity;BMP_temperature;BMP_pressure;BME280_temperature;BME280_humidity;BME280_pressure;Samples;Min_cycle;Max_cycle;Signal;HPM_P1;HPM_P2
2023/03/28 00:01:12;;;;;;;17.85;2.15;;;;;;;;;;4919651;28;21985;-65
2023/03/28 00:03:38;;;;;;;16.98;2.60;;;;;;;;;;4949168;28;20087;-66
2023/03/28 00:06:08;;;;;;;11.95;1.95;;;;;;;;;;4914109;28;22487;-67
2023/03/28 00:08:33;;;;;;;16.77;3.67;;;;;;;;;;4920202;28;20375;-67
2023/03/28 00:11:03;;;;;;;8.52;1.50;;;;;;;;;;4919371;28;20054;-66
2023/03/28 00:13:31;;;;;;;14.02;2.03;;;;;;;;;;4946338;28;20041;-68
2023/03/28 00:16:00;;;;;;;24.10;6.38;;;;;;;;;;4918291;28;20044;-65
2023/03/28 00:18:25;;;;;;;35.83;13.18;;;;;;;;;;4919312;28;20081;-64
2023/03/28 00:20:52;;;;;;;12.55;2.15;;;;;;;;;;4919621;28;20119;-66
2023/03/28 00:23:17;;;;;;;11.13;2.42;;;;;;;;;;4919120;28;20253;-65
2023/03/28 00:25:43;;;;;;;10.90;1.90;;;;;;;;;;4916343;28;20058;-65
2023/03/28 00:28:08;;;;;;;11.52;1.70;;;;;;;;;;4919295;28;20043;-66
2023/03/28 00:30:34;;;;;;;10.68;2.63;;;;;;;;;;4918270;28;20074;-65
2023/03/28 00:33:03;;;;;;;12.90;2.40;;;;;;;;;;4919152;28;20362;-66
2023/03/28 00:35:29;;;;;;;8.93;1.67;;;;;;;;;;4917232;28;20101;-66
2023/03/28 00:37:56;;;;;;;13.18;1.92;;;;;;;;;;4920580;28;20579;-65
2023/03/28 00:40:24;;;;;;;8.57;1.75;;;;;;;;;;4923047;28;20465;-66
2023/03/28 00:42:50;;;;;;;10.10;1.27;;;;;;;;;;4937097;28;20058;-65
2023/03/28 00:45:15;;;;;;;13.25;1.30;;;;;;;;;;4920518;28;20043;-66
2023/03/28 00:47:45;;;;;;;7.57;1.40;;;;;;;;;;4914147;28;20039;-66
2023/03/28 00:50:29;;;;;;;9.45;1.75;;;;;;;;;;4922783;28;20031;-64
2023/03/28 00:52:54;;;;;;;16.38;2.28;;;;;;;;;;4921302;28;20358;-66
2023/03/28 00:55:28;;;;;;;15.38;1.85;;;;;;;;;;4925184;28;20097;-67
2023/03/28 00:57:56;;;;;;;16.92;1.80;;;;;;;;;;4921610;28;20069;-66
2023/03/28 01:00:22;;;;;;;11.82;2.10;;;;;;;;;;4922125;28;20044;-65
2023/03/28 01:02:51;;;;;;;9.30;1.75;;;;;;;;;;4920841;28;20040;-67
2023/03/28 01:05:21;;;;;;;17.23;1.85;;;;;;;;;;4914846;28;20447;-66
2023/03/28 01:07:48;;;;;;;12.13;1.80;;;;;;;;;;4919235;28;20044;-66
2023/03/28 01:10:13;;;;;;;11.63;1.95;;;;;;;;;;4922030;28;20039;-65
2023/03/28 01:12:40;;;;;;;14.07;1.42;;;;;;;;;;4922953;28;20039;-66
2023/03/28 01:15:07;;;;;;;11.32;1.58;;;;;;;;;;4921423;28;20043;-65
2023/03/28 01:17:33;;;;;;;8.98;1.38;;;;;;;;;;4920039;28;20040;-70
2023/03/28 01:20:28;;;;;;;8.02;1.30;;;;;;;;;;4949517;28;20296;-71
2023/03/28 01:23:02;;;;;;;11.27;1.55;;;;;;;;;;4855708;28;20549;-70
2023/03/28 01:25:42;;;;;;;7.72;1.20;;;;;;;;;;4930580;28;20061;-69
2023/03/28 01:28:25;;;;;;;13.73;1.77;;;;;;;;;;4918726;28;20047;-70
2023/03/28 01:30:52;;;;;;;9.27;1.67;;;;;;;;;;4949904;28;20050;-68
2023/03/28 01:33:35;;;;;;;11.07;1.67;;;;;;;;;;4950278;28;21045;-66
2023/03/28 01:36:26;;;;;;;7.50;1.63;;;;;;;;;;4923148;28;20039;-68
2023/03/28 01:39:14;;;;;;;13.07;1.77;;;;;;;;;;4937800;28;20437;-70
2023/03/28 01:41:58;;;;;;;12.45;1.67;;;;;;;;;;4908473;28;20450;-70
2023/03/28 01:44:31;;;;;;;11.07;1.40;;;;;;;;;;4921057;28;20043;-70
2023/03/28 01:46:59;;;;;;;9.02;1.50;;;;;;;;;;4951823;28;20189;-70
2023/03/28 01:49:26;;;;;;;19.67;2.63;;;;;;;;;;4919069;28;20055;-70
2023/03/28 01:51:57;;;;;;;8.02;1.40;;;;;;;;;;4919661;28;20592;-71
2023/03/28 01:54:40;;;;;;;9.73;1.38;;;;;;;;;;4921437;28;20525;-70
2023/03/28 01:57:15;;;;;;;9.68;1.60;;;;;;;;;;4945197;28;20125;-70
2023/03/28 02:00:05;;;;;;;7.80;1.45;;;;;;;;;;4919690;28;20094;-69
2023/03/28 02:03:10;;;;;;;7.20;1.35;;;;;;;;;;4918890;28;20043;-70
2023/03/28 02:05:36;;;;;;;14.00;1.58;;;;;;;;;;4840932;28;20059;-70
2023/03/28 02:08:07;;;;;;;12.57;2.17;;;;;;;;;;4903673;28;20051;-71
2023/03/28 02:10:39;;;;;;;12.50;1.65;;;;;;;;;;4918021;28;20043;-70
2023/03/28 02:13:25;;;;;;;10.82;1.40;;;;;;;;;;4920124;28;20043;-69
2023/03/28 02:15:56;;;;;;;12.40;2.03;;;;;;;;;;4920405;28;20043;-69
2023/03/28 02:18:25;;;;;;;6.05;1.40;;;;;;;;;;4915902;28;20336;-70
2023/03/28 02:20:55;;;;;;;10.25;1.27;;;;;;;;;;4917132;28;20039;-70
2023/03/28 02:23:24;;;;;;;14.50;1.95;;;;;;;;;;4919854;28;20408;-70
2023/03/28 02:25:50;;;;;;;4.97;1.20;;;;;;;;;;4921217;28;20143;-70
2023/03/28 02:28:16;;;;;;;12.13;1.40;;;;;;;;;;4921261;28;20043;-71
2023/03/28 02:30:41;;;;;;;7.30;1.40;;;;;;;;;;4909620;28;20108;-69
2023/03/28 02:33:27;;;;;;;10.57;1.60;;;;;;;;;;4918260;28;20702;-70
2023/03/28 02:35:58;;;;;;;10.80;3.83;;;;;;;;;;4950780;28;20044;-70
2023/03/28 02:38:35;;;;;;;11.50;1.90;;;;;;;;;;4920857;28;20054;-70
2023/03/28 02:41:11;;;;;;;5.45;1.00;;;;;;;;;;4920691;28;20120;-71
2023/03/28 02:43:43;;;;;;;5.63;1.20;;;;;;;;;;4917691;28;20067;-70
2023/03/28 02:46:18;;;;;;;7.05;1.20;;;;;;;;;;4921069;28;20047;-69
2023/03/28 02:48:53;;;;;;;9.13;1.52;;;;;;;;;;4918500;28;20097;-69
2023/03/28 02:51:39;;;;;;;6.18;2.00;;;;;;;;;;4920180;28;20039;-69
2023/03/28 02:54:18;;;;;;;8.55;1.55;;;;;;;;;;4919004;28;20093;-70
2023/03/28 02:56:43;;;;;;;7.15;1.40;;;;;;;;;;4920286;28;20043;-69
2023/03/28 02:59:19;;;;;;;8.68;1.40;;;;;;;;;;4920093;28;20077;-69
2023/03/28 03:01:44;;;;;;;12.02;1.55;;;;;;;;;;4942578;28;20040;-69
2023/03/28 03:04:16;;;;;;;8.82;1.70;;;;;;;;;;4917108;28;20089;-69
2023/03/28 03:06:41;;;;;;;19.15;2.08;;;;;;;;;;4920675;28;20047;-69
2023/03/28 03:09:07;;;;;;;10.93;1.65;;;;;;;;;;4920152;28;20047;-69
2023/03/28 03:11:32;;;;;;;8.77;1.50;;;;;;;;;;4919786;28;20043;-69
2023/03/28 03:14:00;;;;;;;9.27;1.33;;;;;;;;;;4918814;28;20614;-68
2023/03/28 03:16:28;;;;;;;6.22;1.50;;;;;;;;;;4919403;28;20044;-70
2023/03/28 03:18:56;;;;;;;10.15;1.85;;;;;;;;;;4918319;28;20074;-69
2023/03/28 03:21:22;;;;;;;11.20;1.33;;;;;;;;;;4918744;28;20039;-69
2023/03/28 03:23:48;;;;;;;6.35;1.30;;;;;;;;;;4916850;28;20034;-68
2023/03/28 03:26:13;;;;;;;9.10;1.35;;;;;;;;;;4918014;28;20095;-70
2023/03/28 03:28:38;;;;;;;7.93;1.75;;;;;;;;;;4919969;28;20054;-69
2023/03/28 03:31:04;;;;;;;11.63;1.90;;;;;;;;;;4920003;28;20419;-68
2023/03/28 03:33:29;;;;;;;11.82;1.77;;;;;;;;;;4920079;28;20088;-69
2023/03/28 03:35:54;;;;;;;8.23;2.13;;;;;;;;;;4919371;28;20032;-69
2023/03/28 03:38:22;;;;;;;6.75;1.30;;;;;;;;;;4934221;28;20123;-69
2023/03/28 03:40:47;;;;;;;8.65;1.60;;;;;;;;;;4920423;28;20494;-68
2023/03/28 03:43:13;;;;;;;10.63;1.65;;;;;;;;;;4916998;28;20046;-69
2023/03/28 03:45:39;;;;;;;9.18;1.73;;;;;;;;;;4918674;28;20062;-70
2023/03/28 03:48:07;;;;;;;7.10;1.73;;;;;;;;;;4921311;28;20055;-69
2023/03/28 03:50:33;;;;;;;16.08;2.97;;;;;;;;;;4915673;28;20039;-69
2023/03/28 03:52:58;;;;;;;10.85;2.03;;;;;;;;;;4919245;28;20046;-70
2023/03/28 03:55:25;;;;;;;12.75;2.15;;;;;;;;;;4919006;28;20393;-69
2023/03/28 03:57:51;;;;;;;8.48;1.52;;;;;;;;;;4917516;28;20039;-69
2023/03/28 04:00:17;;;;;;;11.55;2.22;;;;;;;;;;4918149;28;20065;-69
2023/03/28 04:02:43;;;;;;;8.45;1.85;;;;;;;;;;4917129;28;20732;-70
2023/03/28 04:05:10;;;;;;;9.15;1.90;;;;;;;;;;4918727;28;20070;-68
2023/03/28 04:07:36;;;;;;;8.05;1.58;;;;;;;;;;4912739;28;20504;-68
2023/03/28 04:10:01;;;;;;;10.40;1.65;;;;;;;;;;4919906;28;20046;-70
2023/03/28 04:12:26;;;;;;;9.20;1.83;;;;;;;;;;4919640;28;20035;-71
2023/03/28 04:14:54;;;;;;;5.07;1.30;;;;;;;;;;4919858;28;20433;-69
2023/03/28 04:17:20;;;;;;;10.73;1.60;;;;;;;;;;4945573;28;20224;-69
2023/03/28 04:19:46;;;;;;;16.40;1.70;;;;;;;;;;4919381;28;20076;-70
2023/03/28 04:22:11;;;;;;;11.20;1.85;;;;;;;;;;4919913;28;20105;-70
2023/03/28 04:24:43;;;;;;;8.40;1.92;;;;;;;;;;4917000;28;20032;-70
2023/03/28 04:27:09;;;;;;;10.93;2.00;;;;;;;;;;4916438;28;20043;-66
2023/03/28 04:29:35;;;;;;;13.70;2.00;;;;;;;;;;4914311;28;20093;-65
2023/03/28 04:32:04;;;;;;;11.75;2.00;;;;;;;;;;4914404;28;20040;-65
2023/03/28 04:34:30;;;;;;;8.65;1.77;;;;;;;;;;4918772;28;20096;-66
2023/03/28 04:37:00;;;;;;;11.85;1.90;;;;;;;;;;4916822;28;20072;-66
2023/03/28 04:39:25;;;;;;;11.43;2.45;;;;;;;;;;4917379;28;20071;-65
2023/03/28 04:41:54;;;;;;;7.25;2.22;;;;;;;;;;4919820;28;20138;-66
2023/03/28 04:44:34;;;;;;;13.45;2.30;;;;;;;;;;4922813;28;20322;-66
2023/03/28 04:47:00;;;;;;;9.80;2.10;;;;;;;;;;4919877;28;20049;-66
2023/03/28 04:49:25;;;;;;;9.32;2.70;;;;;;;;;;4915476;28;20039;-66
2023/03/28 04:51:50;;;;;;;14.38;1.98;;;;;;;;;;4919125;28;20039;-66
2023/03/28 04:54:16;;;;;;;15.68;2.13;;;;;;;;;;4918315;28;20530;-67
2023/03/28 04:56:46;;;;;;;10.13;2.20;;;;;;;;;;4919092;28;20126;-67
2023/03/28 04:59:30;;;;;;;9.20;2.10;;;;;;;;;;4934915;28;20451;-64
2023/03/28 05:01:56;;;;;;;10.27;2.08;;;;;;;;;;4916818;28;20193;-65
2023/03/28 05:04:22;;;;;;;12.80;2.65;;;;;;;;;;4918674;28;20070;-65
2023/03/28 05:06:50;;;;;;;11.73;2.13;;;;;;;;;;4917978;28;20559;-67
2023/03/28 05:09:16;;;;;;;10.40;2.50;;;;;;;;;;4917473;28;20044;-69
2023/03/28 05:11:44;;;;;;;13.73;2.38;;;;;;;;;;4916635;28;20040;-69
2023/03/28 05:14:09;;;;;;;9.38;2.33;;;;;;;;;;4915266;28;20124;-70
2023/03/28 05:16:35;;;;;;;13.00;2.42;;;;;;;;;;4916665;28;20504;-71
2023/03/28 05:19:00;;;;;;;10.75;2.00;;;;;;;;;;4913517;28;20039;-70
2023/03/28 05:21:26;;;;;;;13.25;2.67;;;;;;;;;;4916389;28;20047;-68
2023/03/28 05:23:53;;;;;;;11.43;2.22;;;;;;;;;;4913282;28;20039;-69
2023/03/28 05:26:19;;;;;;;9.80;2.28;;;;;;;;;;4920071;28;20057;-69
2023/03/28 05:28:44;;;;;;;13.13;2.00;;;;;;;;;;4922397;28;20447;-72
2023/03/28 05:31:11;;;;;;;12.30;2.67;;;;;;;;;;4921507;28;20039;-69
2023/03/28 05:33:37;;;;;;;11.32;2.45;;;;;;;;;;4921934;28;20067;-67
2023/03/28 05:36:03;;;;;;;15.77;2.72;;;;;;;;;;4920076;28;20058;-69
2023/03/28 05:38:30;;;;;;;10.02;2.50;;;;;;;;;;4918575;28;20467;-68
2023/03/28 05:40:57;;;;;;;12.13;2.55;;;;;;;;;;4916502;28;20055;-71
2023/03/28 05:43:22;;;;;;;10.32;2.40;;;;;;;;;;4921314;28;20071;-70
2023/03/28 05:45:48;;;;;;;9.45;2.42;;;;;;;;;;4920129;28;20052;-69
2023/03/28 05:48:13;;;;;;;19.05;2.63;;;;;;;;;;4920447;28;20040;-68
2023/03/28 05:50:38;;;;;;;9.32;2.70;;;;;;;;;;4920743;28;20047;-71
2023/03/28 05:53:04;;;;;;;14.27;2.97;;;;;;;;;;4920480;28;20059;-70
2023/03/28 05:55:29;;;;;;;13.23;2.72;;;;;;;;;;4919040;28;20031;-69
2023/03/28 05:57:55;;;;;;;11.68;2.75;;;;;;;;;;4917912;28;20059;-69
2023/03/28 06:00:21;;;;;;;11.60;2.88;;;;;;;;;;4916483;28;20081;-69
2023/03/28 06:02:49;;;;;;;11.20;3.20;;;;;;;;;;4923577;28;20469;-69
2023/03/28 06:05:19;;;;;;;9.55;2.60;;;;;;;;;;4918605;28;20051;-68
2023/03/28 06:07:44;;;;;;;10.50;2.70;;;;;;;;;;4917902;28;20066;-65
2023/03/28 06:10:13;;;;;;;9.50;3.10;;;;;;;;;;4933706;28;20039;-65
2023/03/28 06:12:39;;;;;;;15.23;3.90;;;;;;;;;;4919197;28;20040;-65
2023/03/28 06:15:04;;;;;;;12.38;3.88;;;;;;;;;;4919818;28;20027;-65
2023/03/28 06:17:30;;;;;;;11.20;4.28;;;;;;;;;;4922004;28;20039;-65
2023/03/28 06:19:55;;;;;;;11.15;3.10;;;;;;;;;;4918558;28;20062;-65
2023/03/28 06:22:20;;;;;;;14.40;4.38;;;;;;;;;;4923747;28;20090;-66
2023/03/28 06:24:48;;;;;;;9.02;2.90;;;;;;;;;;4920319;28;20154;-66
2023/03/28 06:27:13;;;;;;;13.00;3.67;;;;;;;;;;4917414;28;20164;-65
2023/03/28 06:29:41;;;;;;;13.88;3.75;;;;;;;;;;4919907;28;20104;-65
2023/03/28 06:32:06;;;;;;;16.92;4.40;;;;;;;;;;4920432;28;20048;-65
2023/03/28 06:34:31;;;;;;;16.52;4.53;;;;;;;;;;4923005;28;20519;-67
2023/03/28 06:36:58;;;;;;;17.20;5.20;;;;;;;;;;4921308;28;20031;-65
2023/03/28 06:39:24;;;;;;;19.27;4.97;;;;;;;;;;4915616;28;20081;-65
2023/03/28 06:41:51;;;;;;;13.48;4.43;;;;;;;;;;4918552;28;21084;-66
2023/03/28 06:44:16;;;;;;;23.35;5.95;;;;;;;;;;4906006;28;20089;-67
2023/03/28 06:46:41;;;;;;;12.65;4.53;;;;;;;;;;4918311;28;20047;-65
2023/03/28 06:49:07;;;;;;;15.43;3.55;;;;;;;;;;4917769;28;20049;-65
2023/03/28 06:51:32;;;;;;;17.58;5.78;;;;;;;;;;4915678;28;20085;-65
2023/03/28 06:53:58;;;;;;;25.15;5.97;;;;;;;;;;4920875;28;20736;-66
2023/03/28 06:56:23;;;;;;;27.73;6.57;;;;;;;;;;4934790;28;20032;-66
2023/03/28 06:58:48;;;;;;;24.73;5.90;;;;;;;;;;4918451;28;20038;-64
2023/03/28 07:01:13;;;;;;;20.65;4.82;;;;;;;;;;4921822;28;20181;-64
2023/03/28 07:03:39;;;;;;;26.60;9.73;;;;;;;;;;4922002;28;20039;-65
2023/03/28 07:06:05;;;;;;;28.13;6.68;;;;;;;;;;4935628;28;20534;-65
2023/03/28 07:08:33;;;;;;;26.92;6.50;;;;;;;;;;4921771;28;20044;-65
2023/03/28 07:10:59;;;;;;;40.17;10.93;;;;;;;;;;4923033;28;20130;-65
2023/03/28 07:13:24;;;;;;;17.15;4.57;;;;;;;;;;4948904;28;20050;-66
2023/03/28 07:16:03;;;;;;;17.23;4.47;;;;;;;;;;4921871;28;20054;-66
2023/03/28 07:18:28;;;;;;;22.75;5.57;;;;;;;;;;4952512;28;20084;-65
2023/03/28 07:20:54;;;;;;;16.35;4.93;;;;;;;;;;4921980;28;20050;-65
2023/03/28 07:23:19;;;;;;;19.45;4.80;;;;;;;;;;4919695;28;20062;-64
2023/03/28 07:25:44;;;;;;;19.00;4.85;;;;;;;;;;4918947;28;20101;-65
2023/03/28 07:28:17;;;;;;;14.10;5.45;;;;;;;;;;4912679;28;20776;-66
2023/03/28 07:30:42;;;;;;;18.48;4.80;;;;;;;;;;4914562;28;20041;-65
2023/03/28 07:33:08;;;;;;;19.05;4.88;;;;;;;;;;4917100;28;22226;-66
2023/03/28 07:35:33;;;;;;;27.98;4.97;;;;;;;;;;4917859;28;20039;-65
2023/03/28 07:38:00;;;;;;;19.27;4.82;;;;;;;;;;4919565;28;20035;-64
2023/03/28 07:40:26;;;;;;;18.27;5.00;;;;;;;;;;4916754;28;20067;-64
2023/03/28 07:42:51;;;;;;;15.00;3.30;;;;;;;;;;4912386;28;20059;-66
2023/03/28 07:45:17;;;;;;;13.65;3.75;;;;;;;;;;4916035;28;20598;-63
2023/03/28 07:47:42;;;;;;;17.40;3.80;;;;;;;;;;4917262;28;20149;-63
2023/03/28 07:50:10;;;;;;;15.57;4.18;;;;;;;;;;4918545;28;20038;-64
2023/03/28 07:52:35;;;;;;;21.52;6.40;;;;;;;;;;4916700;28;20621;-63
2023/03/28 07:55:00;;;;;;;14.32;3.55;;;;;;;;;;4946049;28;20035;-72
2023/03/28 07:57:30;;;;;;;21.05;3.60;;;;;;;;;;4915375;28;20063;-78
2023/03/28 07:59:56;;;;;;;16.20;4.93;;;;;;;;;;4949256;28;20044;-73
2023/03/28 08:02:21;;;;;;;15.02;3.90;;;;;;;;;;4918706;28;20059;-65
2023/03/28 08:04:47;;;;;;;15.45;3.20;;;;;;;;;;4918966;28;20044;-65
2023/03/28 08:07:19;;;;;;;11.65;2.75;;;;;;;;;;4916805;28;20134;-64
2023/03/28 08:09:44;;;;;;;13.43;2.97;;;;;;;;;;4947879;28;20166;-63
2023/03/28 08:12:09;;;;;;;19.50;7.03;;;;;;;;;;4916365;28;20031;-64
2023/03/28 08:14:35;;;;;;;20.10;8.75;;;;;;;;;;4917154;28;20045;-64
2023/03/28 08:17:02;;;;;;;16.10;5.32;;;;;;;;;;4925198;28;20047;-64
2023/03/28 08:19:27;;;;;;;22.98;9.77;;;;;;;;;;4922037;28;20047;-64
2023/03/28 08:21:53;;;;;;;10.70;3.38;;;;;;;;;;4918320;28;20043;-63
2023/03/28 08:24:18;;;;;;;13.75;2.70;;;;;;;;;;4917237;28;20073;-64
2023/03/28 08:26:46;;;;;;;8.90;2.28;;;;;;;;;;4917894;28;20423;-64
2023/03/28 08:29:14;;;;;;;12.57;3.20;;;;;;;;;;4911262;28;20126;-65
2023/03/28 08:31:40;;;;;;;15.38;3.33;;;;;;;;;;4917387;28;20806;-65
2023/03/28 08:34:05;;;;;;;12.32;2.60;;;;;;;;;;4918131;28;20035;-65
2023/03/28 08:36:33;;;;;;;10.75;3.83;;;;;;;;;;4916442;28;20055;-64
2023/03/28 08:39:04;;;;;;;11.35;4.03;;;;;;;;;;4932264;28;20043;-64
2023/03/28 08:41:32;;;;;;;14.45;5.30;;;;;;;;;;4918304;28;20523;-65
2023/03/28 08:44:23;;;;;;;13.55;3.72;;;;;;;;;;4914596;28;20053;-63
2023/03/28 08:46:51;;;;;;;10.80;1.98;;;;;;;;;;4917973;28;20122;-65
2023/03/28 08:49:17;;;;;;;17.27;8.05;;;;;;;;;;4917773;28;20104;-64
2023/03/28 08:52:01;;;;;;;8.45;2.90;;;;;;;;;;4931097;28;20066;-63
2023/03/28 08:54:36;;;;;;;9.00;2.38;;;;;;;;;;4946036;28;20075;-64
2023/03/28 08:57:02;;;;;;;15.52;5.50;;;;;;;;;;4917929;28;20043;-63
2023/03/28 08:59:42;;;;;;;13.82;2.53;;;;;;;;;;4919134;28;20666;-63
2023/03/28 09:02:17;;;;;;;6.43;2.55;;;;;;;;;;4920352;28;20043;-64
2023/03/28 09:04:43;;;;;;;11.63;3.42;;;;;;;;;;4920607;28;20108;-64
2023/03/28 09:07:26;;;;;;;7.18;2.25;;;;;;;;;;4921040;28;20047;-63
2023/03/28 09:09:51;;;;;;;9.70;2.38;;;;;;;;;;4919317;28;20040;-63
2023/03/28 09:12:24;;;;;;;12.05;2.65;;;;;;;;;;4936984;28;20047;-63
2023/03/28 09:14:58;;;;;;;8.45;2.15;;;;;;;;;;4921140;28;20050;-64
2023/03/28 09:17:29;;;;;;;5.72;1.95;;;;;;;;;;4920111;28;20046;-63
2023/03/28 09:20:13;;;;;;;8.83;2.23;;;;;;;;;;4917638;28;20091;-64
2023/03/28 09:22:56;;;;;;;8.70;2.30;;;;;;;;;;4920856;28;20040;-65
2023/03/28 09:25:28;;;;;;;9.60;2.35;;;;;;;;;;4919016;28;20040;-63
2023/03/28 09:28:15;;;;;;;10.68;2.65;;;;;;;;;;4918935;28;20416;-66
2023/03/28 09:30:45;;;;;;;11.45;2.85;;;;;;;;;;4922308;28;20035;-63
2023/03/28 09:33:17;;;;;;;12.15;2.47;;;;;;;;;;4922259;28;20027;-64
2023/03/28 09:35:44;;;;;;;5.90;2.20;;;;;;;;;;4922163;28;20050;-63
2023/03/28 09:38:21;;;;;;;6.57;1.98;;;;;;;;;;4922690;28;20046;-63
2023/03/28 09:40:47;;;;;;;7.95;2.42;;;;;;;;;;4920266;28;20031;-63
2023/03/28 09:43:19;;;;;;;10.00;2.97;;;;;;;;;;4920848;28;20046;-64
2023/03/28 09:45:47;;;;;;;;;;;;;;;;;;4920199;28;20074;-64
2023/03/28 09:48:24;;;;;;;9.70;3.58;;;;;;;;;;4921248;28;19924;-64
2023/03/28 09:50:51;;;;;;;13.48;4.25;;;;;;;;;;4919279;28;20063;-64
2023/03/28 09:53:21;;;;;;;17.33;3.70;;;;;;;;;;4949936;28;20055;-63
2023/03/28 09:55:47;;;;;;;10.77;3.63;;;;;;;;;;4941339;28;20042;-63
2023/03/28 09:58:17;;;;;;;23.25;5.30;;;;;;;;;;4917891;28;20062;-63
2023/03/28 10:00:45;;;;;;;12.15;3.33;;;;;;;;;;4919586;28;20039;-64
2023/03/28 10:03:22;;;;;;;9.63;3.53;;;;;;;;;;4919228;28;20039;-64
2023/03/28 10:05:50;;;;;;;11.85;3.75;;;;;;;;;;4921480;28;20079;-64
2023/03/28 10:08:19;;;;;;;13.65;3.55;;;;;;;;;;4919080;28;20035;-66
2023/03/28 10:10:52;;;;;;;12.43;3.53;;;;;;;;;;4921213;28;20062;-64
2023/03/28 10:13:18;;;;;;;13.75;3.70;;;;;;;;;;4915313;28;20035;-64
2023/03/28 10:15:44;;;;;;;21.30;5.35;;;;;;;;;;4951428;28;20681;-64
2023/03/28 10:18:19;;;;;;;15.93;5.53;;;;;;;;;;4922185;28;20044;-64
2023/03/28 10:20:46;;;;;;;16.08;5.10;;;;;;;;;;4921110;28;20039;-63
2023/03/28 10:23:12;;;;;;;21.42;4.60;;;;;;;;;;4931215;28;20039;-64
2023/03/28 10:25:41;;;;;;;11.05;4.15;;;;;;;;;;4921971;28;20040;-65
2023/03/28 10:28:12;;;;;;;9.48;3.90;;;;;;;;;;4920244;28;20757;-64
2023/03/28 10:30:37;;;;;;;9.38;3.55;;;;;;;;;;4919418;28;20090;-64
2023/03/28 10:33:11;;;;;;;6.75;2.92;;;;;;;;;;4915115;28;20055;-66
2023/03/28 10:35:40;;;;;;;9.57;3.90;;;;;;;;;;4920667;28;20044;-65
2023/03/28 10:38:12;;;;;;;17.90;5.00;;;;;;;;;;4920183;28;20118;-64
2023/03/28 10:40:37;;;;;;;;;;;;;;;;;;4922137;28;20035;-64
2023/03/28 10:43:09;;;;;;;19.80;5.98;;;;;;;;;;4914964;28;19969;-63
2023/03/28 10:45:40;;;;;;;20.92;5.50;;;;;;;;;;4921415;28;22204;-64
2023/03/28 10:48:09;;;;;;;13.38;4.95;;;;;;;;;;4919930;28;20390;-67
2023/03/28 10:50:36;;;;;;;11.25;3.95;;;;;;;;;;4917458;28;20048;-64
2023/03/28 10:53:20;;;;;;;8.07;3.40;;;;;;;;;;4919506;28;20058;-65
2023/03/28 10:55:51;;;;;;;7.28;3.20;;;;;;;;;;4919126;28;20408;-62
2023/03/28 10:58:25;;;;;;;11.83;4.23;;;;;;;;;;4919936;28;20046;-64
2023/03/28 11:01:00;;;;;;;16.88;4.63;;;;;;;;;;4920789;28;20349;-64
2023/03/28 11:03:25;;;;;;;8.73;3.47;;;;;;;;;;4915420;28;20610;-65
2023/03/28 11:05:54;;;;;;;8.20;3.00;;;;;;;;;;4919464;28;20055;-62
2023/03/28 11:08:35;;;;;;;8.52;3.15;;;;;;;;;;4913690;28;20040;-63
2023/03/28 11:11:00;;;;;;;17.90;4.60;;;;;;;;;;4921524;28;20046;-63
2023/03/28 11:13:31;;;;;;;17.65;4.57;;;;;;;;;;4921017;28;20031;-64
2023/03/28 11:16:05;;;;;;;21.83;5.32;;;;;;;;;;4919515;28;20400;-63
2023/03/28 11:18:44;;;;;;;9.50;4.00;;;;;;;;;;4917701;28;20058;-63
2023/03/28 11:21:12;;;;;;;14.02;4.50;;;;;;;;;;4921291;28;20118;-64
2023/03/28 11:23:45;;;;;;;14.52;4.30;;;;;;;;;;4918217;28;20043;-63
2023/03/28 11:26:17;;;;;;;15.30;3.90;;;;;;;;;;4919102;28;21006;-63
2023/03/28 11:28:58;;;;;;;10.55;3.90;;;;;;;;;;4914469;28;20092;-65
2023/03/28 11:31:26;;;;;;;15.27;3.83;;;;;;;;;;4920565;28;20039;-64
2023/03/28 11:33:54;;;;;;;16.65;6.07;;;;;;;;;;4951104;28;20050;-63
2023/03/28 11:36:25;;;;;;;13.55;3.80;;;;;;;;;;4918764;28;20656;-64
2023/03/28 11:38:54;;;;;;;13.32;4.22;;;;;;;;;;4917948;28;20080;-66
2023/03/28 11:41:21;;;;;;;10.50;3.92;;;;;;;;;;4918796;28;20126;-64
2023/03/28 11:44:05;;;;;;;8.15;3.60;;;;;;;;;;4933258;28;20059;-64
2023/03/28 11:46:31;;;;;;;10.20;3.70;;;;;;;;;;4919470;28;20059;-63
2023/03/28 11:49:15;;;;;;;17.48;4.43;;;;;;;;;;4918377;28;20047;-64
2023/03/28 11:52:04;;;;;;;12.05;4.15;;;;;;;;;;4948889;28;20668;-64
2023/03/28 11:54:47;;;;;;;14.23;4.20;;;;;;;;;;4926853;28;20098;-64
2023/03/28 11:57:15;;;;;;;10.18;3.30;;;;;;;;;;4918278;28;20043;-64
2023/03/28 11:59:43;;;;;;;7.65;2.30;;;;;;;;;;4916538;28;20048;-64
2023/03/28 12:02:09;;;;;;;7.05;2.95;;;;;;;;;;4917297;28;20063;-64
2023/03/28 12:04:40;;;;;;;11.65;3.20;;;;;;;;;;4916531;28;20265;-66
2023/03/28 12:07:14;;;;;;;11.53;3.13;;;;;;;;;;4911295;28;20178;-69
2023/03/28 12:09:58;;;;;;;8.80;2.50;;;;;;;;;;4911431;28;20549;-68
2023/03/28 12:12:29;;;;;;;11.93;2.60;;;;;;;;;;4944848;28;20499;-70
2023/03/28 12:15:14;;;;;;;11.73;2.78;;;;;;;;;;4913613;28;20357;-70
2023/03/28 12:17:42;;;;;;;8.38;2.72;;;;;;;;;;4979816;28;20575;-70
2023/03/28 12:20:15;;;;;;;11.60;3.28;;;;;;;;;;4910239;28;20046;-70
2023/03/28 12:22:51;;;;;;;9.05;2.83;;;;;;;;;;4910090;28;20035;-71
2023/03/28 12:25:16;;;;;;;6.70;2.60;;;;;;;;;;4915349;28;20086;-69
2023/03/28 12:27:42;;;;;;;10.50;2.50;;;;;;;;;;4915410;28;20051;-70
2023/03/28 12:30:25;;;;;;;11.20;3.33;;;;;;;;;;4899698;28;20504;-69
2023/03/28 12:32:51;;;;;;;10.85;3.10;;;;;;;;;;4916451;28;20674;-69
2023/03/28 12:35:38;;;;;;;6.68;2.60;;;;;;;;;;4919798;28;20050;-69
2023/03/28 12:38:04;;;;;;;9.48;3.20;;;;;;;;;;4920317;28;20122;-70
2023/03/28 12:40:35;;;;;;;10.52;3.25;;;;;;;;;;4919027;28;20039;-69
2023/03/28 12:43:00;;;;;;;10.23;4.03;;;;;;;;;;4920179;28;20039;-69
2023/03/28 12:45:30;;;;;;;9.52;3.22;;;;;;;;;;4919304;28;20409;-71
2023/03/28 12:48:01;;;;;;;13.02;3.67;;;;;;;;;;4918730;28;20870;-70
2023/03/28 12:50:47;;;;;;;9.52;3.08;;;;;;;;;;4919100;28;20047;-69
2023/03/28 12:53:12;;;;;;;11.10;3.40;;;;;;;;;;4919017;28;20598;-72
2023/03/28 12:55:42;;;;;;;16.80;4.40;;;;;;;;;;4921227;28;20031;-69
2023/03/28 12:58:18;;;;;;;13.30;4.20;;;;;;;;;;4921291;28;20028;-70
2023/03/28 13:00:57;;;;;;;11.00;4.43;;;;;;;;;;4922011;28;20792;-70
2023/03/28 13:03:41;;;;;;;12.25;4.55;;;;;;;;;;4923989;28;20077;-71
2023/03/28 13:06:21;;;;;;;13.95;5.07;;;;;;;;;;4921614;28;20039;-70
2023/03/28 13:08:46;;;;;;;16.52;6.00;;;;;;;;;;4919995;28;20089;-70
2023/03/28 13:11:28;;;;;;;10.02;4.28;;;;;;;;;;4920490;28;22185;-70
2023/03/28 13:14:12;;;;;;;10.80;4.00;;;;;;;;;;4914366;28;20107;-69
2023/03/28 13:16:46;;;;;;;12.23;4.57;;;;;;;;;;4919255;28;20078;-70
2023/03/28 13:19:13;;;;;;;13.88;4.97;;;;;;;;;;4920640;28;20631;-69
2023/03/28 13:21:43;;;;;;;15.45;4.90;;;;;;;;;;4921850;28;20047;-69
2023/03/28 13:24:23;;;;;;;9.27;4.13;;;;;;;;;;4921218;28;20926;-71
2023/03/28 13:26:56;;;;;;;8.48;4.15;;;;;;;;;;4916962;28;20097;-69
2023/03/28 13:29:23;;;;;;;11.77;4.07;;;;;;;;;;4919326;28;20070;-71
2023/03/28 13:31:48;;;;;;;15.52;3.92;;;;;;;;;;4916056;28;20807;-70
2023/03/28 13:34:21;;;;;;;11.95;4.03;;;;;;;;;;4920255;28;20039;-69
2023/03/28 13:36:52;;;;;;;14.75;4.22;;;;;;;;;;4949164;28;20055;-68
2023/03/28 13:39:21;;;;;;;11.30;4.40;;;;;;;;;;4919494;28;20042;-70
2023/03/28 13:41:46;;;;;;;16.30;4.38;;;;;;;;;;4920854;28;20043;-68
2023/03/28 13:44:23;;;;;;;15.55;3.75;;;;;;;;;;4919384;28;20157;-68
2023/03/28 13:46:49;;;;;;;10.48;4.07;;;;;;;;;;4916556;28;20048;-69
2023/03/28 13:49:19;;;;;;;12.65;3.95;;;;;;;;;;4917702;28;20050;-69
2023/03/28 13:51:45;;;;;;;10.38;3.42;;;;;;;;;;4918237;28;20054;-68
2023/03/28 13:54:10;;;;;;;10.18;3.97;;;;;;;;;;4917567;28;20095;-71
2023/03/28 13:56:39;;;;;;;10.23;3.80;;;;;;;;;;4920144;28;20059;-70
2023/03/28 13:59:05;;;;;;;12.95;3.92;;;;;;;;;;4920544;28;20043;-72
2023/03/28 14:01:35;;;;;;;12.07;3.85;;;;;;;;;;4920248;28;20114;-70
2023/03/28 14:04:08;;;;;;;14.65;4.05;;;;;;;;;;4917242;28;20047;-70
2023/03/28 14:06:38;;;;;;;11.73;4.30;;;;;;;;;;4918163;28;20047;-70
2023/03/28 14:09:04;;;;;;;12.07;3.85;;;;;;;;;;4913916;28;20062;-69
2023/03/28 14:11:31;;;;;;;9.98;4.72;;;;;;;;;;4916079;28;20781;-70
2023/03/28 14:14:19;;;;;;;9.13;4.07;;;;;;;;;;4947841;28;20035;-70
2023/03/28 14:16:45;;;;;;;11.50;4.20;;;;;;;;;;4916929;28;20104;-71
2023/03/28 14:19:16;;;;;;;11.02;4.30;;;;;;;;;;4918561;28;20039;-71
2023/03/28 14:21:41;;;;;;;8.35;3.30;;;;;;;;;;4919223;28;20640;-72
2023/03/28 14:24:07;;;;;;;9.57;5.78;;;;;;;;;;4917161;28;20142;-70
2023/03/28 14:26:35;;;;;;;9.00;2.80;;;;;;;;;;4918325;28;20047;-70
2023/03/28 14:29:11;;;;;;;14.65;3.92;;;;;;;;;;4919453;28;20040;-70
2023/03/28 14:31:39;;;;;;;9.95;3.55;;;;;;;;;;4950189;28;20036;-68
2023/03/28 14:34:23;;;;;;;10.80;4.20;;;;;;;;;;4919952;28;20530;-68
2023/03/28 14:36:59;;;;;;;13.75;4.25;;;;;;;;;;4915980;28;20150;-69
2023/03/28 14:39:25;;;;;;;11.23;3.80;;;;;;;;;;4915492;28;20039;-70
2023/03/28 14:41:52;;;;;;;10.48;3.85;;;;;;;;;;4915927;28;20047;-67
2023/03/28 14:44:17;;;;;;;8.32;3.67;;;;;;;;;;4999901;28;20040;-69
2023/03/28 14:46:48;;;;;;;14.00;4.10;;;;;;;;;;4916747;28;20078;-69
2023/03/28 14:49:22;;;;;;;12.23;4.00;;;;;;;;;;4906724;28;20128;-67